sensor_id;sensor_type;location;lat;lon;timestamp;P1;durP1;ratioP1;P2;durP2;ratioP2
37905;SDS011;23739;51.448;6.674;2023-08-07T00:00:29;7.68;;;2.40;;
37905;SDS011;23739;51.448;6.674;2023-08-07T00:02:55;7.88;;;2.72;;
37905;SDS011;23739;51.448;6.674;2023-08-07T00:05:21;8.52;;;2.05;;
37905;SDS011;23739;51.448;6.674;2023-08-07T00:07:47;11.70;;;3.67;;
37905;SDS011;23739;51.448;6.674;2023-08-07T00:10:13;11.00;;;2.83;;
37905;SDS011;23739;51.448;6.674;2023-08-07T00:12:40;9.50;;;2.03;;
37905;SDS011;23739;51.448;6.674;2023-08-07T00:15:06;12.48;;;3.22;;
37905;SDS011;23739;51.448;6.674;2023-08-07T00:17:33;10.35;;;2.38;;
37905;SDS011;23739;51.448;6.674;2023-08-07T00:19:59;11.20;;;2.03;;
37905;SDS011;23739;51.448;6.674;2023-08-07T00:22:25;11.38;;;1.90;;
37905;SDS011;23739;51.448;6.674;2023-08-07T00:24:51;14.05;;;1.85;;
37905;SDS011;23739;51.448;6.674;2023-08-07T00:27:17;8.45;;;1.98;;
37905;SDS011;23739;51.448;6.674;2023-08-07T00:29:43;6.00;;;1.50;;
37905;SDS011;23739;51.448;6.674;2023-08-07T00:32:09;5.85;;;2.75;;
37905;SDS011;23739;51.448;6.674;2023-08-07T00:34:35;9.25;;;2.13;;
37905;SDS011;23739;51.448;6.674;2023-08-07T00:37:01;7.40;;;2.17;;
37905;SDS011;23739;51.448;6.674;2023-08-07T00:39:27;11.48;;;2.28;;
37905;SDS011;23739;51.448;6.674;2023-08-07T00:41:53;4.65;;;1.52;;
37905;SDS011;23739;51.448;6.674;2023-08-07T00:44:19;6.85;;;1.45;;
37905;SDS011;23739;51.448;6.674;2023-08-07T00:46:46;11.05;;;3.17;;
37905;SDS011;23739;51.448;6.674;2023-08-07T00:49:12;4.47;;;1.52;;
37905;SDS011;23739;51.448;6.674;2023-08-07T00:51:39;8.77;;;2.25;;
37905;SDS011;23739;51.448;6.674;2023-08-07T00:54:05;8.48;;;2.05;;
37905;SDS011;23739;51.448;6.674;2023-08-07T00:56:32;8.55;;;2.15;;
37905;SDS011;23739;51.448;6.674;2023-08-07T00:58:58;8.82;;;2.00;;
37905;SDS011;23739;51.448;6.674;2023-08-07T01:01:24;6.22;;;1.77;;
37905;SDS011;23739;51.448;6.674;2023-08-07T01:03:50;6.85;;;1.80;;
37905;SDS011;23739;51.448;6.674;2023-08-07T01:06:16;6.53;;;2.20;;
37905;SDS011;23739;51.448;6.674;2023-08-07T01:08:43;5.80;;;1.60;;
37905;SDS011;23739;51.448;6.674;2023-08-07T01:16:28;10.45;;;1.90;;
37905;SDS011;23739;51.448;6.674;2023-08-07T01:18:55;8.70;;;2.10;;
37905;SDS011;23739;51.448;6.674;2023-08-07T01:21:22;15.80;;;2.90;;
37905;SDS011;23739;51.448;6.674;2023-08-07T01:23:49;11.35;;;2.75;;
37905;SDS011;23739;51.448;6.674;2023-08-07T01:26:16;6.53;;;1.55;;
37905;SDS011;23739;51.448;6.674;2023-08-07T01:28:46;8.70;;;1.55;;
37905;SDS011;23739;51.448;6.674;2023-08-07T01:31:15;5.05;;;1.73;;
37905;SDS011;23739;51.448;6.674;2023-08-07T01:34:04;3.97;;;1.70;;
37905;SDS011;23739;51.448;6.674;2023-08-07T01:36:28;7.13;;;1.83;;
37905;SDS011;23739;51.448;6.674;2023-08-07T01:38:58;6.45;;;1.95;;
37905;SDS011;23739;51.448;6.674;2023-08-07T01:41:25;5.75;;;2.25;;
37905;SDS011;23739;51.448;6.674;2023-08-07T01:43:51;11.73;;;2.53;;
37905;SDS011;23739;51.448;6.674;2023-08-07T01:46:18;4.93;;;2.08;;
37905;SDS011;23739;51.448;6.674;2023-08-07T01:48:44;6.95;;;2.40;;
37905;SDS011;23739;51.448;6.674;2023-08-07T01:51:11;8.82;;;3.38;;
37905;SDS011;23739;51.448;6.674;2023-08-07T01:53:37;10.35;;;2.40;;
37905;SDS011;23739;51.448;6.674;2023-08-07T01:56:03;13.10;;;3.17;;
37905;SDS011;23739;51.448;6.674;2023-08-07T01:58:29;8.40;;;2.30;;
37905;SDS011;23739;51.448;6.674;2023-08-07T02:00:55;5.20;;;1.88;;
37905;SDS011;23739;51.448;6.674;2023-08-07T02:03:21;12.98;;;2.58;;
37905;SDS011;23739;51.448;6.674;2023-08-07T02:05:47;10.13;;;3.00;;
37905;SDS011;23739;51.448;6.674;2023-08-07T02:08:13;11.18;;;2.67;;
37905;SDS011;23739;51.448;6.674;2023-08-07T02:10:40;10.23;;;2.55;;
37905;SDS011;23739;51.448;6.674;2023-08-07T02:13:06;3.05;;;1.63;;
37905;SDS011;23739;51.448;6.674;2023-08-07T02:15:32;6.05;;;2.10;;
37905;SDS011;23739;51.448;6.674;2023-08-07T02:17:58;10.75;;;3.88;;
37905;SDS011;23739;51.448;6.674;2023-08-07T02:20:24;9.65;;;2.50;;
37905;SDS011;23739;51.448;6.674;2023-08-07T02:22:50;9.23;;;3.45;;
37905;SDS011;23739;51.448;6.674;2023-08-07T02:25:16;7.05;;;2.00;;
37905;SDS011;23739;51.448;6.674;2023-08-07T02:27:42;9.15;;;2.88;;
37905;SDS011;23739;51.448;6.674;2023-08-07T02:30:09;9.13;;;2.65;;
37905;SDS011;23739;51.448;6.674;2023-08-07T02:32:35;6.10;;;2.20;;
37905;SDS011;23739;51.448;6.674;2023-08-07T02:35:01;8.75;;;2.88;;
37905;SDS011;23739;51.448;6.674;2023-08-07T02:37:27;9.02;;;3.30;;
37905;SDS011;23739;51.448;6.674;2023-08-07T02:39:53;13.88;;;3.65;;
37905;SDS011;23739;51.448;6.674;2023-08-07T02:42:19;11.35;;;2.80;;
37905;SDS011;23739;51.448;6.674;2023-08-07T02:44:45;9.95;;;2.40;;
37905;SDS011;23739;51.448;6.674;2023-08-07T02:47:11;5.45;;;2.42;;
37905;SDS011;23739;51.448;6.674;2023-08-07T02:49:38;19.95;;;4.28;;
37905;SDS011;23739;51.448;6.674;2023-08-07T02:52:04;7.85;;;3.20;;
37905;SDS011;23739;51.448;6.674;2023-08-07T02:54:30;12.20;;;3.83;;
37905;SDS011;23739;51.448;6.674;2023-08-07T02:56:56;10.07;;;2.70;;
37905;SDS011;23739;51.448;6.674;2023-08-07T02:59:23;10.77;;;4.60;;
37905;SDS011;23739;51.448;6.674;2023-08-07T03:01:49;8.25;;;2.40;;
37905;SDS011;23739;51.448;6.674;2023-08-07T03:04:15;11.00;;;3.40;;
37905;SDS011;23739;51.448;6.674;2023-08-07T03:06:42;8.65;;;2.22;;
37905;SDS011;23739;51.448;6.674;2023-08-07T03:09:08;9.35;;;3.95;;
37905;SDS011;23739;51.448;6.674;2023-08-07T03:11:34;17.60;;;3.50;;
37905;SDS011;23739;51.448;6.674;2023-08-07T03:14:00;9.27;;;2.60;;
37905;SDS011;23739;51.448;6.674;2023-08-07T03:16:26;7.60;;;2.20;;
37905;SDS011;23739;51.448;6.674;2023-08-07T03:18:52;10.85;;;2.60;;
37905;SDS011;23739;51.448;6.674;2023-08-07T03:21:18;10.48;;;2.42;;
37905;SDS011;23739;51.448;6.674;2023-08-07T03:23:44;14.88;;;3.97;;
37905;SDS011;23739;51.448;6.674;2023-08-07T03:26:11;7.15;;;2.80;;
37905;SDS011;23739;51.448;6.674;2023-08-07T03:28:37;14.63;;;3.17;;
37905;SDS011;23739;51.448;6.674;2023-08-07T03:31:04;14.45;;;2.55;;
37905;SDS011;23739;51.448;6.674;2023-08-07T03:33:30;11.50;;;2.50;;
37905;SDS011;23739;51.448;6.674;2023-08-07T03:35:56;11.88;;;2.55;;
37905;SDS011;23739;51.448;6.674;2023-08-07T03:38:22;7.85;;;2.90;;
37905;SDS011;23739;51.448;6.674;2023-08-07T03:40:48;12.45;;;4.30;;
37905;SDS011;23739;51.448;6.674;2023-08-07T03:43:14;7.15;;;2.42;;
37905;SDS011;23739;51.448;6.674;2023-08-07T03:45:41;10.55;;;2.78;;
37905;SDS011;23739;51.448;6.674;2023-08-07T03:48:07;17.50;;;3.10;;
37905;SDS011;23739;51.448;6.674;2023-08-07T03:50:33;16.60;;;3.33;;
37905;SDS011;23739;51.448;6.674;2023-08-07T03:53:02;12.88;;;3.13;;
37905;SDS011;23739;51.448;6.674;2023-08-07T03:55:28;7.28;;;2.60;;
37905;SDS011;23739;51.448;6.674;2023-08-07T03:57:54;12.63;;;4.13;;
37905;SDS011;23739;51.448;6.674;2023-08-07T04:00:20;9.07;;;2.70;;
37905;SDS011;23739;51.448;6.674;2023-08-07T04:02:47;11.20;;;2.67;;
37905;SDS011;23739;51.448;6.674;2023-08-07T04:05:13;15.98;;;2.92;;
37905;SDS011;23739;51.448;6.674;2023-08-07T04:07:39;14.93;;;2.95;;
37905;SDS011;23739;51.448;6.674;2023-08-07T04:10:05;8.65;;;2.83;;
37905;SDS011;23739;51.448;6.674;2023-08-07T04:12:31;11.90;;;3.35;;
37905;SDS011;23739;51.448;6.674;2023-08-07T04:14:57;8.45;;;3.05;;
37905;SDS011;23739;51.448;6.674;2023-08-07T04:17:23;8.00;;;3.47;;
37905;SDS011;23739;51.448;6.674;2023-08-07T04:19:49;9.98;;;3.05;;
37905;SDS011;23739;51.448;6.674;2023-08-07T04:22:16;9.88;;;2.85;;
37905;SDS011;23739;51.448;6.674;2023-08-07T04:24:42;10.75;;;2.88;;
37905;SDS011;23739;51.448;6.674;2023-08-07T04:27:08;13.25;;;3.55;;
37905;SDS011;23739;51.448;6.674;2023-08-07T04:29:34;13.32;;;2.67;;
37905;SDS011;23739;51.448;6.674;2023-08-07T04:32:01;12.68;;;3.42;;
37905;SDS011;23739;51.448;6.674;2023-08-07T04:34:27;9.77;;;2.80;;
37905;SDS011;23739;51.448;6.674;2023-08-07T04:36:53;13.68;;;3.40;;
37905;SDS011;23739;51.448;6.674;2023-08-07T04:39:21;15.38;;;3.65;;
37905;SDS011;23739;51.448;6.674;2023-08-07T04:41:47;11.38;;;3.35;;
37905;SDS011;23739;51.448;6.674;2023-08-07T04:44:17;11.43;;;3.72;;
37905;SDS011;23739;51.448;6.674;2023-08-07T04:46:43;8.55;;;3.08;;
37905;SDS011;23739;51.448;6.674;2023-08-07T04:49:09;14.13;;;2.75;;
37905;SDS011;23739;51.448;6.674;2023-08-07T04:51:35;11.02;;;3.45;;
37905;SDS011;23739;51.448;6.674;2023-08-07T04:54:02;14.02;;;3.05;;
37905;SDS011;23739;51.448;6.674;2023-08-07T04:56:28;12.80;;;3.05;;
37905;SDS011;23739;51.448;6.674;2023-08-07T04:58:55;8.38;;;3.25;;
37905;SDS011;23739;51.448;6.674;2023-08-07T05:01:22;9.00;;;3.25;;
37905;SDS011;23739;51.448;6.674;2023-08-07T05:03:48;8.70;;;3.80;;
37905;SDS011;23739;51.448;6.674;2023-08-07T05:06:14;9.52;;;2.80;;
37905;SDS011;23739;51.448;6.674;2023-08-07T05:08:40;15.88;;;3.58;;
37905;SDS011;23739;51.448;6.674;2023-08-07T05:11:06;16.17;;;2.92;;
37905;SDS011;23739;51.448;6.674;2023-08-07T05:13:32;16.60;;;4.28;;
37905;SDS011;23739;51.448;6.674;2023-08-07T05:15:58;13.13;;;4.35;;
37905;SDS011;23739;51.448;6.674;2023-08-07T05:18:25;9.40;;;3.00;;
37905;SDS011;23739;51.448;6.674;2023-08-07T05:20:51;12.13;;;3.45;;
37905;SDS011;23739;51.448;6.674;2023-08-07T05:23:17;11.60;;;3.88;;
37905;SDS011;23739;51.448;6.674;2023-08-07T05:25:46;9.30;;;3.50;;
37905;SDS011;23739;51.448;6.674;2023-08-07T05:28:12;13.80;;;4.13;;
37905;SDS011;23739;51.448;6.674;2023-08-07T05:30:38;10.57;;;3.92;;
37905;SDS011;23739;51.448;6.674;2023-08-07T05:33:04;9.13;;;3.30;;
37905;SDS011;23739;51.448;6.674;2023-08-07T05:35:30;7.57;;;3.90;;
37905;SDS011;23739;51.448;6.674;2023-08-07T05:37:56;12.98;;;3.13;;
37905;SDS011;23739;51.448;6.674;2023-08-07T05:40:23;11.10;;;4.55;;
37905;SDS011;23739;51.448;6.674;2023-08-07T05:42:49;13.77;;;3.97;;
37905;SDS011;23739;51.448;6.674;2023-08-07T05:45:15;11.88;;;4.18;;
37905;SDS011;23739;51.448;6.674;2023-08-07T05:47:41;13.48;;;3.83;;
37905;SDS011;23739;51.448;6.674;2023-08-07T05:50:07;9.13;;;3.50;;
37905;SDS011;23739;51.448;6.674;2023-08-07T05:52:33;10.18;;;3.25;;
37905;SDS011;23739;51.448;6.674;2023-08-07T05:54:59;8.18;;;3.58;;
37905;SDS011;23739;51.448;6.674;2023-08-07T05:57:26;8.27;;;3.25;;
37905;SDS011;23739;51.448;6.674;2023-08-07T05:59:52;6.95;;;3.05;;
37905;SDS011;23739;51.448;6.674;2023-08-07T06:02:18;11.32;;;3.63;;
37905;SDS011;23739;51.448;6.674;2023-08-07T06:04:44;8.55;;;3.53;;
37905;SDS011;23739;51.448;6.674;2023-08-07T06:07:10;9.23;;;2.63;;
37905;SDS011;23739;51.448;6.674;2023-08-07T06:09:36;8.13;;;3.25;;
37905;SDS011;23739;51.448;6.674;2023-08-07T06:12:03;11.05;;;3.72;;
37905;SDS011;23739;51.448;6.674;2023-08-07T06:14:29;15.05;;;3.85;;
37905;SDS011;23739;51.448;6.674;2023-08-07T06:16:55;6.07;;;2.70;;
37905;SDS011;23739;51.448;6.674;2023-08-07T06:19:26;9.40;;;2.95;;
37905;SDS011;23739;51.448;6.674;2023-08-07T06:21:52;7.80;;;4.05;;
37905;SDS011;23739;51.448;6.674;2023-08-07T06:24:19;12.55;;;3.63;;
37905;SDS011;23739;51.448;6.674;2023-08-07T06:26:45;10.50;;;2.88;;
37905;SDS011;23739;51.448;6.674;2023-08-07T06:29:11;5.43;;;2.88;;
37905;SDS011;23739;51.448;6.674;2023-08-07T06:31:37;5.55;;;2.78;;
37905;SDS011;23739;51.448;6.674;2023-08-07T06:34:03;9.63;;;3.58;;
37905;SDS011;23739;51.448;6.674;2023-08-07T06:36:29;7.22;;;3.08;;
37905;SDS011;23739;51.448;6.674;2023-08-07T06:38:56;9.93;;;2.90;;
37905;SDS011;23739;51.448;6.674;2023-08-07T06:41:22;12.23;;;4.45;;
37905;SDS011;23739;51.448;6.674;2023-08-07T06:43:48;8.23;;;3.35;;
37905;SDS011;23739;51.448;6.674;2023-08-07T06:46:16;10.48;;;3.17;;
37905;SDS011;23739;51.448;6.674;2023-08-07T06:48:43;10.18;;;3.75;;
37905;SDS011;23739;51.448;6.674;2023-08-07T06:51:09;12.43;;;4.13;;
37905;SDS011;23739;51.448;6.674;2023-08-07T06:53:35;8.15;;;3.35;;
37905;SDS011;23739;51.448;6.674;2023-08-07T06:56:01;8.52;;;3.35;;
37905;SDS011;23739;51.448;6.674;2023-08-07T06:58:27;11.38;;;3.70;;
37905;SDS011;23739;51.448;6.674;2023-08-07T07:00:53;12.38;;;3.88;;
37905;SDS011;23739;51.448;6.674;2023-08-07T07:03:20;9.13;;;3.83;;
37905;SDS011;23739;51.448;6.674;2023-08-07T07:05:46;8.32;;;3.30;;
37905;SDS011;23739;51.448;6.674;2023-08-07T07:08:12;8.55;;;3.20;;
37905;SDS011;23739;51.448;6.674;2023-08-07T07:10:38;14.48;;;3.30;;
37905;SDS011;23739;51.448;6.674;2023-08-07T07:13:04;9.20;;;3.65;;
37905;SDS011;23739;51.448;6.674;2023-08-07T07:15:31;6.90;;;3.15;;
37905;SDS011;23739;51.448;6.674;2023-08-07T07:17:57;12.07;;;3.35;;
37905;SDS011;23739;51.448;6.674;2023-08-07T07:20:23;8.82;;;3.03;;
37905;SDS011;23739;51.448;6.674;2023-08-07T07:22:49;11.48;;;3.17;;
37905;SDS011;23739;51.448;6.674;2023-08-07T07:25:15;9.25;;;3.08;;
37905;SDS011;23739;51.448;6.674;2023-08-07T07:27:41;11.35;;;3.15;;
37905;SDS011;23739;51.448;6.674;2023-08-07T07:30:07;11.18;;;2.88;;
37905;SDS011;23739;51.448;6.674;2023-08-07T07:32:34;10.90;;;2.85;;
37905;SDS011;23739;51.448;6.674;2023-08-07T07:35:00;10.23;;;3.50;;
37905;SDS011;23739;51.448;6.674;2023-08-07T07:37:26;6.70;;;3.38;;
37905;SDS011;23739;51.448;6.674;2023-08-07T07:39:52;9.25;;;3.10;;
37905;SDS011;23739;51.448;6.674;2023-08-07T07:42:18;8.20;;;4.45;;
37905;SDS011;23739;51.448;6.674;2023-08-07T07:44:44;6.50;;;2.83;;
37905;SDS011;23739;51.448;6.674;2023-08-07T07:47:10;13.90;;;3.97;;
37905;SDS011;23739;51.448;6.674;2023-08-07T07:49:37;9.13;;;3.88;;
37905;SDS011;23739;51.448;6.674;2023-08-07T07:52:03;10.93;;;2.90;;
37905;SDS011;23739;51.448;6.674;2023-08-07T07:54:30;12.57;;;4.00;;
37905;SDS011;23739;51.448;6.674;2023-08-07T07:56:56;6.40;;;3.45;;
37905;SDS011;23739;51.448;6.674;2023-08-07T07:59:22;8.60;;;3.13;;
37905;SDS011;23739;51.448;6.674;2023-08-07T08:01:48;9.85;;;3.67;;
37905;SDS011;23739;51.448;6.674;2023-08-07T08:04:16;11.68;;;2.90;;
37905;SDS011;23739;51.448;6.674;2023-08-07T08:06:42;10.40;;;3.05;;
37905;SDS011;23739;51.448;6.674;2023-08-07T08:09:09;8.80;;;3.15;;
37905;SDS011;23739;51.448;6.674;2023-08-07T08:11:35;7.53;;;2.70;;
37905;SDS011;23739;51.448;6.674;2023-08-07T08:14:01;5.50;;;2.92;;
37905;SDS011;23739;51.448;6.674;2023-08-07T08:16:27;9.77;;;2.72;;
37905;SDS011;23739;51.448;6.674;2023-08-07T08:18:53;8.85;;;2.75;;
37905;SDS011;23739;51.448;6.674;2023-08-07T08:21:20;9.18;;;2.75;;
37905;SDS011;23739;51.448;6.674;2023-08-07T08:23:46;9.18;;;3.10;;
37905;SDS011;23739;51.448;6.674;2023-08-07T08:26:12;12.05;;;3.00;;
37905;SDS011;23739;51.448;6.674;2023-08-07T08:28:38;7.03;;;2.83;;
37905;SDS011;23739;51.448;6.674;2023-08-07T08:31:04;10.48;;;3.45;;
37905;SDS011;23739;51.448;6.674;2023-08-07T08:33:31;7.45;;;2.78;;
37905;SDS011;23739;51.448;6.674;2023-08-07T08:35:57;7.45;;;4.05;;
37905;SDS011;23739;51.448;6.674;2023-08-07T08:38:23;10.88;;;2.50;;
37905;SDS011;23739;51.448;6.674;2023-08-07T08:40:54;10.68;;;2.85;;
37905;SDS011;23739;51.448;6.674;2023-08-07T08:43:20;9.30;;;2.88;;
37905;SDS011;23739;51.448;6.674;2023-08-07T08:45:46;6.78;;;2.00;;
37905;SDS011;23739;51.448;6.674;2023-08-07T08:48:13;8.73;;;2.13;;
37905;SDS011;23739;51.448;6.674;2023-08-07T08:50:43;6.03;;;2.13;;
37905;SDS011;23739;51.448;6.674;2023-08-07T08:53:09;7.60;;;2.30;;
37905;SDS011;23739;51.448;6.674;2023-08-07T08:55:36;6.32;;;2.17;;
37905;SDS011;23739;51.448;6.674;2023-08-07T08:58:02;9.45;;;2.72;;
37905;SDS011;23739;51.448;6.674;2023-08-07T09:00:28;8.48;;;2.42;;
37905;SDS011;23739;51.448;6.674;2023-08-07T09:02:55;7.75;;;3.45;;
37905;SDS011;23739;51.448;6.674;2023-08-07T09:05:22;13.63;;;3.50;;
37905;SDS011;23739;51.448;6.674;2023-08-07T09:07:48;7.50;;;3.95;;
37905;SDS011;23739;51.448;6.674;2023-08-07T09:10:14;6.13;;;2.65;;
37905;SDS011;23739;51.448;6.674;2023-08-07T09:12:53;7.82;;;3.55;;
37905;SDS011;23739;51.448;6.674;2023-08-07T09:15:19;14.85;;;3.13;;
37905;SDS011;23739;51.448;6.674;2023-08-07T09:17:47;11.05;;;4.15;;
37905;SDS011;23739;51.448;6.674;2023-08-07T09:20:14;11.07;;;3.00;;
37905;SDS011;23739;51.448;6.674;2023-08-07T09:22:41;11.00;;;3.67;;
37905;SDS011;23739;51.448;6.674;2023-08-07T09:25:07;12.60;;;4.97;;
37905;SDS011;23739;51.448;6.674;2023-08-07T09:27:35;12.60;;;3.88;;
37905;SDS011;23739;51.448;6.674;2023-08-07T09:30:02;8.50;;;2.83;;
37905;SDS011;23739;51.448;6.674;2023-08-07T09:32:28;9.68;;;3.15;;
37905;SDS011;23739;51.448;6.674;2023-08-07T09:34:54;10.30;;;2.80;;
37905;SDS011;23739;51.448;6.674;2023-08-07T09:37:20;6.28;;;2.95;;
37905;SDS011;23739;51.448;6.674;2023-08-07T09:39:46;11.20;;;2.88;;
37905;SDS011;23739;51.448;6.674;2023-08-07T09:42:13;9.43;;;2.80;;
37905;SDS011;23739;51.448;6.674;2023-08-07T09:44:43;9.00;;;3.67;;
37905;SDS011;23739;51.448;6.674;2023-08-07T09:47:17;10.23;;;2.93;;
37905;SDS011;23739;51.448;6.674;2023-08-07T09:49:45;13.93;;;3.58;;
37905;SDS011;23739;51.448;6.674;2023-08-07T09:52:12;6.07;;;3.03;;
37905;SDS011;23739;51.448;6.674;2023-08-07T09:54:39;5.55;;;2.28;;
37905;SDS011;23739;51.448;6.674;2023-08-07T09:57:05;13.77;;;3.00;;
37905;SDS011;23739;51.448;6.674;2023-08-07T09:59:32;8.65;;;2.88;;
37905;SDS011;23739;51.448;6.674;2023-08-07T10:01:59;9.60;;;2.65;;
37905;SDS011;23739;51.448;6.674;2023-08-07T10:04:27;11.52;;;3.53;;
37905;SDS011;23739;51.448;6.674;2023-08-07T10:06:53;8.50;;;3.40;;
37905;SDS011;23739;51.448;6.674;2023-08-07T10:09:19;7.50;;;2.38;;
37905;SDS011;23739;51.448;6.674;2023-08-07T10:11:46;11.52;;;2.70;;
37905;SDS011;23739;51.448;6.674;2023-08-07T10:14:14;10.35;;;3.53;;
37905;SDS011;23739;51.448;6.674;2023-08-07T10:16:40;9.15;;;3.47;;
37905;SDS011;23739;51.448;6.674;2023-08-07T10:19:07;11.77;;;2.30;;
37905;SDS011;23739;51.448;6.674;2023-08-07T10:21:37;6.35;;;2.72;;
37905;SDS011;23739;51.448;6.674;2023-08-07T10:24:04;6.30;;;2.17;;
37905;SDS011;23739;51.448;6.674;2023-08-07T10:26:34;7.43;;;1.92;;
37905;SDS011;23739;51.448;6.674;2023-08-07T10:29:01;6.18;;;1.75;;
37905;SDS011;23739;51.448;6.674;2023-08-07T10:31:28;7.68;;;2.50;;
37905;SDS011;23739;51.448;6.674;2023-08-07T10:33:54;7.85;;;2.60;;
37905;SDS011;23739;51.448;6.674;2023-08-07T10:36:21;6.72;;;2.83;;
37905;SDS011;23739;51.448;6.674;2023-08-07T10:38:50;7.20;;;2.28;;
37905;SDS011;23739;51.448;6.674;2023-08-07T10:41:17;9.25;;;2.10;;
37905;SDS011;23739;51.448;6.674;2023-08-07T10:43:44;8.90;;;2.40;;
37905;SDS011;23739;51.448;6.674;2023-08-07T10:51:05;10.65;;;3.47;;
37905;SDS011;23739;51.448;6.674;2023-08-07T10:53:33;5.72;;;2.33;;
37905;SDS011;23739;51.448;6.674;2023-08-07T10:56:03;8.85;;;3.20;;
37905;SDS011;23739;51.448;6.674;2023-08-07T10:58:33;10.85;;;3.08;;
37905;SDS011;23739;51.448;6.674;2023-08-07T11:03:54;8.52;;;2.90;;
37905;SDS011;23739;51.448;6.674;2023-08-07T11:06:27;5.60;;;2.00;;
37905;SDS011;23739;51.448;6.674;2023-08-07T11:08:56;9.25;;;2.53;;
37905;SDS011;23739;51.448;6.674;2023-08-07T11:11:22;8.68;;;1.98;;
37905;SDS011;23739;51.448;6.674;2023-08-07T11:13:49;5.20;;;1.85;;
37905;SDS011;23739;51.448;6.674;2023-08-07T11:16:16;5.43;;;1.70;;
37905;SDS011;23739;51.448;6.674;2023-08-07T11:18:42;4.85;;;1.80;;
37905;SDS011;23739;51.448;6.674;2023-08-07T11:21:09;5.47;;;2.28;;
37905;SDS011;23739;51.448;6.674;2023-08-07T11:23:36;5.90;;;2.40;;
37905;SDS011;23739;51.448;6.674;2023-08-07T11:26:02;6.88;;;3.05;;
37905;SDS011;23739;51.448;6.674;2023-08-07T11:28:28;5.93;;;2.13;;
37905;SDS011;23739;51.448;6.674;2023-08-07T11:30:55;6.75;;;2.00;;
37905;SDS011;23739;51.448;6.674;2023-08-07T11:33:23;8.27;;;2.00;;
37905;SDS011;23739;51.448;6.674;2023-08-07T11:35:49;7.70;;;2.50;;
37905;SDS011;23739;51.448;6.674;2023-08-07T11:38:37;5.70;;;2.15;;
37905;SDS011;23739;51.448;6.674;2023-08-07T11:41:02;6.80;;;1.67;;
37905;SDS011;23739;51.448;6.674;2023-08-07T11:43:31;6.72;;;2.03;;
37905;SDS011;23739;51.448;6.674;2023-08-07T11:45:58;7.30;;;2.55;;
37905;SDS011;23739;51.448;6.674;2023-08-07T11:48:28;6.72;;;2.13;;
37905;SDS011;23739;51.448;6.674;2023-08-07T11:50:55;7.05;;;1.85;;
37905;SDS011;23739;51.448;6.674;2023-08-07T11:53:21;5.65;;;1.90;;
37905;SDS011;23739;51.448;6.674;2023-08-07T11:56:06;6.97;;;2.63;;
37905;SDS011;23739;51.448;6.674;2023-08-07T11:58:41;4.32;;;2.03;;
37905;SDS011;23739;51.448;6.674;2023-08-07T12:01:11;10.18;;;2.58;;
37905;SDS011;23739;51.448;6.674;2023-08-07T12:03:39;6.47;;;2.25;;
37905;SDS011;23739;51.448;6.674;2023-08-07T12:06:05;7.55;;;2.28;;
37905;SDS011;23739;51.448;6.674;2023-08-07T12:08:32;9.38;;;1.90;;
37905;SDS011;23739;51.448;6.674;2023-08-07T12:11:00;8.10;;;1.88;;
37905;SDS011;23739;51.448;6.674;2023-08-07T12:13:27;5.97;;;1.70;;
37905;SDS011;23739;51.448;6.674;2023-08-07T12:15:53;5.95;;;1.70;;
37905;SDS011;23739;51.448;6.674;2023-08-07T12:18:20;9.82;;;1.95;;
37905;SDS011;23739;51.448;6.674;2023-08-07T12:20:48;10.25;;;1.75;;
37905;SDS011;23739;51.448;6.674;2023-08-07T12:23:14;5.22;;;1.50;;
37905;SDS011;23739;51.448;6.674;2023-08-07T12:25:43;5.82;;;1.20;;
37905;SDS011;23739;51.448;6.674;2023-08-07T12:28:10;5.65;;;1.55;;
37905;SDS011;23739;51.448;6.674;2023-08-07T12:30:39;8.75;;;1.70;;
37905;SDS011;23739;51.448;6.674;2023-08-07T12:33:06;4.35;;;1.88;;
37905;SDS011;23739;51.448;6.674;2023-08-07T12:35:35;7.03;;;1.80;;
37905;SDS011;23739;51.448;6.674;2023-08-07T12:38:01;4.35;;;1.42;;
37905;SDS011;23739;51.448;6.674;2023-08-07T12:40:28;4.18;;;2.42;;
37905;SDS011;23739;51.448;6.674;2023-08-07T12:42:55;5.70;;;1.83;;
37905;SDS011;23739;51.448;6.674;2023-08-07T12:45:21;3.83;;;1.98;;
37905;SDS011;23739;51.448;6.674;2023-08-07T12:47:47;3.13;;;1.42;;
37905;SDS011;23739;51.448;6.674;2023-08-07T12:50:13;3.75;;;1.50;;
37905;SDS011;23739;51.448;6.674;2023-08-07T12:52:40;7.03;;;1.70;;
37905;SDS011;23739;51.448;6.674;2023-08-07T12:55:06;2.60;;;1.88;;
37905;SDS011;23739;51.448;6.674;2023-08-07T12:57:32;6.18;;;1.83;;
37905;SDS011;23739;51.448;6.674;2023-08-07T12:59:58;4.03;;;1.48;;
37905;SDS011;23739;51.448;6.674;2023-08-07T13:02:25;4.72;;;1.25;;
37905;SDS011;23739;51.448;6.674;2023-08-07T13:04:51;7.63;;;2.10;;
37905;SDS011;23739;51.448;6.674;2023-08-07T13:07:19;6.63;;;1.73;;
37905;SDS011;23739;51.448;6.674;2023-08-07T13:09:45;3.35;;;1.90;;
37905;SDS011;23739;51.448;6.674;2023-08-07T13:12:11;4.28;;;1.27;;
37905;SDS011;23739;51.448;6.674;2023-08-07T13:14:37;3.03;;;1.30;;
37905;SDS011;23739;51.448;6.674;2023-08-07T13:17:04;4.45;;;1.20;;
37905;SDS011;23739;51.448;6.674;2023-08-07T13:19:30;5.80;;;1.90;;
37905;SDS011;23739;51.448;6.674;2023-08-07T13:21:56;2.72;;;1.40;;
37905;SDS011;23739;51.448;6.674;2023-08-07T13:24:22;3.28;;;1.17;;
37905;SDS011;23739;51.448;6.674;2023-08-07T13:26:48;3.88;;;1.50;;
37905;SDS011;23739;51.448;6.674;2023-08-07T13:29:14;4.18;;;1.38;;
37905;SDS011;23739;51.448;6.674;2023-08-07T13:31:40;5.57;;;1.70;;
37905;SDS011;23739;51.448;6.674;2023-08-07T13:34:07;3.90;;;1.30;;
37905;SDS011;23739;51.448;6.674;2023-08-07T13:36:35;5.60;;;1.70;;
37905;SDS011;23739;51.448;6.674;2023-08-07T13:39:02;4.20;;;1.65;;
37905;SDS011;23739;51.448;6.674;2023-08-07T13:41:28;5.25;;;1.23;;
37905;SDS011;23739;51.448;6.674;2023-08-07T13:43:55;6.32;;;1.85;;
37905;SDS011;23739;51.448;6.674;2023-08-07T13:46:21;4.13;;;1.60;;
37905;SDS011;23739;51.448;6.674;2023-08-07T13:48:47;5.07;;;1.70;;
37905;SDS011;23739;51.448;6.674;2023-08-07T13:51:14;5.20;;;1.55;;
37905;SDS011;23739;51.448;6.674;2023-08-07T13:53:41;3.22;;;1.45;;
37905;SDS011;23739;51.448;6.674;2023-08-07T13:56:07;4.53;;;1.20;;
37905;SDS011;23739;51.448;6.674;2023-08-07T13:58:36;4.60;;;1.30;;
37905;SDS011;23739;51.448;6.674;2023-08-07T14:01:02;4.30;;;1.35;;
37905;SDS011;23739;51.448;6.674;2023-08-07T14:03:29;4.55;;;1.40;;
37905;SDS011;23739;51.448;6.674;2023-08-07T14:05:55;3.72;;;1.15;;
37905;SDS011;23739;51.448;6.674;2023-08-07T14:08:21;6.10;;;1.20;;
37905;SDS011;23739;51.448;6.674;2023-08-07T14:10:48;7.43;;;2.58;;
37905;SDS011;23739;51.448;6.674;2023-08-07T14:13:14;2.60;;;1.35;;
37905;SDS011;23739;51.448;6.674;2023-08-07T14:15:40;1.73;;;1.00;;
37905;SDS011;23739;51.448;6.674;2023-08-07T14:18:06;2.25;;;1.20;;
37905;SDS011;23739;51.448;6.674;2023-08-07T14:20:32;5.05;;;1.38;;
37905;SDS011;23739;51.448;6.674;2023-08-07T14:22:58;1.83;;;0.95;;
37905;SDS011;23739;51.448;6.674;2023-08-07T14:25:24;1.83;;;1.00;;
37905;SDS011;23739;51.448;6.674;2023-08-07T14:27:50;2.75;;;1.40;;
37905;SDS011;23739;51.448;6.674;2023-08-07T14:30:17;3.30;;;1.08;;
37905;SDS011;23739;51.448;6.674;2023-08-07T14:32:43;5.03;;;1.17;;
37905;SDS011;23739;51.448;6.674;2023-08-07T14:35:09;5.57;;;1.30;;
37905;SDS011;23739;51.448;6.674;2023-08-07T14:37:35;3.90;;;1.00;;
37905;SDS011;23739;51.448;6.674;2023-08-07T14:40:02;5.13;;;1.58;;
37905;SDS011;23739;51.448;6.674;2023-08-07T14:42:28;3.33;;;1.33;;
37905;SDS011;23739;51.448;6.674;2023-08-07T14:44:54;4.07;;;1.35;;
37905;SDS011;23739;51.448;6.674;2023-08-07T14:47:20;3.35;;;1.40;;
37905;SDS011;23739;51.448;6.674;2023-08-07T14:49:46;5.07;;;1.27;;
37905;SDS011;23739;51.448;6.674;2023-08-07T14:52:12;2.70;;;1.10;;